sensor_id;sensor_type;location;lat;lon;timestamp;P1;durP1;ratioP1;P2;durP2;ratioP2
68608;SDS011;55581;46.718;7.690;2022-10-30T00:01:12;7.47;;;1.77;;
68608;SDS011;55581;46.718;7.690;2022-10-30T00:03:37;9.37;;;2.10;;
68608;SDS011;55581;46.718;7.690;2022-10-30T00:06:03;6.47;;;1.50;;
68608;SDS011;55581;46.718;7.690;2022-10-30T00:08:31;9.23;;;1.90;;
68608;SDS011;55581;46.718;7.690;2022-10-30T00:11:03;7.88;;;2.00;;
68608;SDS011;55581;46.718;7.690;2022-10-30T00:13:34;7.45;;;1.67;;
68608;SDS011;55581;46.718;7.690;2022-10-30T00:16:02;6.93;;;1.70;;
68608;SDS011;55581;46.718;7.690;2022-10-30T00:18:31;6.70;;;1.73;;
68608;SDS011;55581;46.718;7.690;2022-10-30T00:21:03;14.00;;;1.77;;
68608;SDS011;55581;46.718;7.690;2022-10-30T00:23:30;8.52;;;1.30;;
68608;SDS011;55581;46.718;7.690;2022-10-30T00:25:55;12.00;;;2.10;;
68608;SDS011;55581;46.718;7.690;2022-10-30T00:28:22;9.52;;;2.00;;
68608;SDS011;55581;46.718;7.690;2022-10-30T00:30:47;6.90;;;1.50;;
68608;SDS011;55581;46.718;7.690;2022-10-30T00:33:13;6.30;;;1.83;;
68608;SDS011;55581;46.718;7.690;2022-10-30T00:35:38;7.77;;;1.87;;
68608;SDS011;55581;46.718;7.690;2022-10-30T00:38:11;10.00;;;1.90;;
68608;SDS011;55581;46.718;7.690;2022-10-30T00:40:36;9.23;;;2.08;;
68608;SDS011;55581;46.718;7.690;2022-10-30T00:43:02;8.23;;;1.90;;
68608;SDS011;55581;46.718;7.690;2022-10-30T00:45:27;6.33;;;1.63;;
68608;SDS011;55581;46.718;7.690;2022-10-30T00:47:59;7.97;;;1.73;;
68608;SDS011;55581;46.718;7.690;2022-10-30T00:50:28;8.90;;;1.60;;
68608;SDS011;55581;46.718;7.690;2022-10-30T00:52:57;9.18;;;2.17;;
68608;SDS011;55581;46.718;7.690;2022-10-30T00:55:37;9.47;;;2.73;;
68608;SDS011;55581;46.718;7.690;2022-10-30T00:58:08;11.45;;;2.58;;
68608;SDS011;55581;46.718;7.690;2022-10-30T01:00:39;16.60;;;2.40;;
68608;SDS011;55581;46.718;7.690;2022-10-30T01:03:10;12.82;;;2.55;;
68608;SDS011;55581;46.718;7.690;2022-10-30T01:05:36;12.03;;;2.20;;
68608;SDS011;55581;46.718;7.690;2022-10-30T01:08:02;6.32;;;2.08;;
68608;SDS011;55581;46.718;7.690;2022-10-30T01:10:31;8.40;;;1.90;;
68608;SDS011;55581;46.718;7.690;2022-10-30T01:12:56;10.03;;;1.70;;
68608;SDS011;55581;46.718;7.690;2022-10-30T01:15:32;8.98;;;2.85;;
68608;SDS011;55581;46.718;7.690;2022-10-30T01:20:36;9.48;;;2.05;;
68608;SDS011;55581;46.718;7.690;2022-10-30T01:28:19;6.97;;;2.17;;
68608;SDS011;55581;46.718;7.690;2022-10-30T01:33:53;9.70;;;2.03;;
68608;SDS011;55581;46.718;7.690;2022-10-30T01:36:35;11.10;;;1.98;;
68608;SDS011;55581;46.718;7.690;2022-10-30T01:39:08;8.37;;;1.67;;
68608;SDS011;55581;46.718;7.690;2022-10-30T01:41:36;9.55;;;2.00;;
68608;SDS011;55581;46.718;7.690;2022-10-30T01:44:02;8.73;;;2.30;;
68608;SDS011;55581;46.718;7.690;2022-10-30T02:00:58;12.38;;;2.55;;
68608;SDS011;55581;46.718;7.690;2022-10-30T02:03:27;9.95;;;2.10;;
68608;SDS011;55581;46.718;7.690;2022-10-30T02:05:53;11.60;;;2.75;;
68608;SDS011;55581;46.718;7.690;2022-10-30T02:08:21;8.13;;;1.93;;
68608;SDS011;55581;46.718;7.690;2022-10-30T02:10:47;9.30;;;2.20;;
68608;SDS011;55581;46.718;7.690;2022-10-30T02:13:15;10.38;;;2.33;;
68608;SDS011;55581;46.718;7.690;2022-10-30T02:15:41;5.90;;;2.17;;
68608;SDS011;55581;46.718;7.690;2022-10-30T02:18:07;8.18;;;1.98;;
68608;SDS011;55581;46.718;7.690;2022-10-30T02:20:33;8.70;;;2.28;;
68608;SDS011;55581;46.718;7.690;2022-10-30T02:22:59;7.07;;;2.17;;
68608;SDS011;55581;46.718;7.690;2022-10-30T02:25:24;7.60;;;1.42;;
68608;SDS011;55581;46.718;7.690;2022-10-30T02:27:50;8.80;;;2.10;;
68608;SDS011;55581;46.718;7.690;2022-10-30T02:30:15;7.27;;;1.77;;
68608;SDS011;55581;46.718;7.690;2022-10-30T02:32:41;6.17;;;1.33;;
68608;SDS011;55581;46.718;7.690;2022-10-30T02:35:06;6.45;;;1.83;;
68608;SDS011;55581;46.718;7.690;2022-10-30T02:37:34;9.20;;;2.27;;
68608;SDS011;55581;46.718;7.690;2022-10-30T02:40:00;10.20;;;2.53;;
68608;SDS011;55581;46.718;7.690;2022-10-30T02:42:28;8.77;;;2.23;;
68608;SDS011;55581;46.718;7.690;2022-10-30T02:44:53;9.55;;;1.75;;
68608;SDS011;55581;46.718;7.690;2022-10-30T02:47:19;9.80;;;2.10;;
68608;SDS011;55581;46.718;7.690;2022-10-30T02:49:44;11.87;;;1.97;;
68608;SDS011;55581;46.718;7.690;2022-10-30T02:52:09;7.13;;;1.60;;
68608;SDS011;55581;46.718;7.690;2022-10-30T02:54:35;7.63;;;1.57;;
68608;SDS011;55581;46.718;7.690;2022-10-30T02:57:00;5.40;;;1.20;;
68608;SDS011;55581;46.718;7.690;2022-10-30T02:59:26;5.33;;;1.17;;
68608;SDS011;55581;46.718;7.690;2022-10-30T03:01:51;8.57;;;1.60;;
68608;SDS011;55581;46.718;7.690;2022-10-30T03:04:17;7.37;;;1.47;;
68608;SDS011;55581;46.718;7.690;2022-10-30T03:06:43;11.68;;;2.20;;
68608;SDS011;55581;46.718;7.690;2022-10-30T03:09:10;5.93;;;1.93;;
68608;SDS011;55581;46.718;7.690;2022-10-30T03:11:35;7.25;;;2.22;;
68608;SDS011;55581;46.718;7.690;2022-10-30T03:14:01;9.87;;;1.77;;
68608;SDS011;55581;46.718;7.690;2022-10-30T03:16:26;11.30;;;1.80;;
68608;SDS011;55581;46.718;7.690;2022-10-30T03:18:57;7.30;;;1.73;;
68608;SDS011;55581;46.718;7.690;2022-10-30T03:21:24;10.57;;;2.60;;
68608;SDS011;55581;46.718;7.690;2022-10-30T03:23:52;5.53;;;1.70;;
68608;SDS011;55581;46.718;7.690;2022-10-30T03:26:18;8.95;;;1.95;;
68608;SDS011;55581;46.718;7.690;2022-10-30T03:28:44;8.95;;;1.80;;
68608;SDS011;55581;46.718;7.690;2022-10-30T03:31:14;9.93;;;1.90;;
68608;SDS011;55581;46.718;7.690;2022-10-30T03:33:42;9.10;;;2.40;;
68608;SDS011;55581;46.718;7.690;2022-10-30T03:36:09;9.20;;;2.47;;
68608;SDS011;55581;46.718;7.690;2022-10-30T03:38:36;11.20;;;3.03;;
68608;SDS011;55581;46.718;7.690;2022-10-30T03:41:02;14.30;;;3.13;;
68608;SDS011;55581;46.718;7.690;2022-10-30T03:43:30;10.00;;;2.93;;
68608;SDS011;55581;46.718;7.690;2022-10-30T03:45:59;15.00;;;3.38;;
68608;SDS011;55581;46.718;7.690;2022-10-30T03:48:29;8.23;;;2.30;;
68608;SDS011;55581;46.718;7.690;2022-10-30T03:50:55;9.43;;;1.37;;
68608;SDS011;55581;46.718;7.690;2022-10-30T03:53:22;8.98;;;1.55;;
68608;SDS011;55581;46.718;7.690;2022-10-30T03:55:52;9.43;;;2.30;;
68608;SDS011;55581;46.718;7.690;2022-10-30T03:58:21;7.40;;;1.50;;
68608;SDS011;55581;46.718;7.690;2022-10-30T04:00:46;6.85;;;1.33;;
68608;SDS011;55581;46.718;7.690;2022-10-30T04:03:12;5.13;;;1.13;;
68608;SDS011;55581;46.718;7.690;2022-10-30T04:05:37;8.87;;;1.90;;
68608;SDS011;55581;46.718;7.690;2022-10-30T04:08:04;6.77;;;1.93;;
68608;SDS011;55581;46.718;7.690;2022-10-30T04:10:31;8.52;;;2.15;;
68608;SDS011;55581;46.718;7.690;2022-10-30T04:13:01;6.57;;;2.08;;
68608;SDS011;55581;46.718;7.690;2022-10-30T04:15:28;6.97;;;1.60;;
68608;SDS011;55581;46.718;7.690;2022-10-30T04:17:53;6.27;;;1.73;;
68608;SDS011;55581;46.718;7.690;2022-10-30T04:20:19;6.00;;;1.27;;
68608;SDS011;55581;46.718;7.690;2022-10-30T04:22:47;16.00;;;1.65;;
68608;SDS011;55581;46.718;7.690;2022-10-30T04:25:13;5.28;;;1.80;;
68608;SDS011;55581;46.718;7.690;2022-10-30T04:27:40;8.27;;;1.27;;
68608;SDS011;55581;46.718;7.690;2022-10-30T04:30:06;6.55;;;1.20;;
68608;SDS011;55581;46.718;7.690;2022-10-30T04:32:34;8.82;;;1.38;;
68608;SDS011;55581;46.718;7.690;2022-10-30T04:34:59;10.23;;;2.20;;
68608;SDS011;55581;46.718;7.690;2022-10-30T04:37:25;8.02;;;2.30;;
68608;SDS011;55581;46.718;7.690;2022-10-30T04:39:50;6.90;;;2.50;;
68608;SDS011;55581;46.718;7.690;2022-10-30T04:42:15;13.63;;;2.30;;
68608;SDS011;55581;46.718;7.690;2022-10-30T04:44:41;8.50;;;2.30;;
68608;SDS011;55581;46.718;7.690;2022-10-30T04:47:06;7.10;;;2.17;;
68608;SDS011;55581;46.718;7.690;2022-10-30T04:49:32;7.88;;;2.50;;
68608;SDS011;55581;46.718;7.690;2022-10-30T04:51:57;8.90;;;1.83;;
68608;SDS011;55581;46.718;7.690;2022-10-30T04:54:22;6.47;;;1.60;;
68608;SDS011;55581;46.718;7.690;2022-10-30T04:56:48;6.77;;;1.73;;
68608;SDS011;55581;46.718;7.690;2022-10-30T04:59:16;6.15;;;1.70;;
68608;SDS011;55581;46.718;7.690;2022-10-30T05:01:41;16.00;;;1.90;;
68608;SDS011;55581;46.718;7.690;2022-10-30T05:04:06;7.53;;;1.67;;
68608;SDS011;55581;46.718;7.690;2022-10-30T05:06:32;8.87;;;1.40;;
68608;SDS011;55581;46.718;7.690;2022-10-30T05:08:58;8.80;;;1.53;;
68608;SDS011;55581;46.718;7.690;2022-10-30T05:11:23;7.07;;;1.27;;
68608;SDS011;55581;46.718;7.690;2022-10-30T05:13:49;11.53;;;2.10;;
68608;SDS011;55581;46.718;7.690;2022-10-30T05:16:14;8.40;;;1.83;;
68608;SDS011;55581;46.718;7.690;2022-10-30T05:18:42;10.82;;;1.73;;
68608;SDS011;55581;46.718;7.690;2022-10-30T05:21:08;8.05;;;2.00;;
68608;SDS011;55581;46.718;7.690;2022-10-30T05:23:33;8.60;;;1.37;;
68608;SDS011;55581;46.718;7.690;2022-10-30T05:25:59;8.38;;;1.20;;
68608;SDS011;55581;46.718;7.690;2022-10-30T05:28:26;11.87;;;1.97;;
68608;SDS011;55581;46.718;7.690;2022-10-30T05:30:56;9.40;;;2.10;;
68608;SDS011;55581;46.718;7.690;2022-10-30T05:33:21;9.10;;;1.70;;
68608;SDS011;55581;46.718;7.690;2022-10-30T05:35:48;6.78;;;1.30;;
68608;SDS011;55581;46.718;7.690;2022-10-30T05:38:13;10.03;;;1.83;;
68608;SDS011;55581;46.718;7.690;2022-10-30T05:40:39;7.97;;;1.52;;
68608;SDS011;55581;46.718;7.690;2022-10-30T05:43:04;9.53;;;1.50;;
68608;SDS011;55581;46.718;7.690;2022-10-30T05:45:30;7.20;;;1.20;;
68608;SDS011;55581;46.718;7.690;2022-10-30T05:47:56;8.45;;;1.45;;
68608;SDS011;55581;46.718;7.690;2022-10-30T05:50:23;5.20;;;1.05;;
68608;SDS011;55581;46.718;7.690;2022-10-30T05:52:58;7.22;;;1.63;;
68608;SDS011;55581;46.718;7.690;2022-10-30T05:55:26;9.27;;;1.77;;
68608;SDS011;55581;46.718;7.690;2022-10-30T05:57:56;5.63;;;1.33;;
68608;SDS011;55581;46.718;7.690;2022-10-30T06:00:25;5.63;;;1.70;;
68608;SDS011;55581;46.718;7.690;2022-10-30T06:02:57;5.55;;;1.42;;
68608;SDS011;55581;46.718;7.690;2022-10-30T06:05:29;9.13;;;2.00;;
68608;SDS011;55581;46.718;7.690;2022-10-30T06:07:55;13.93;;;2.10;;
68608;SDS011;55581;46.718;7.690;2022-10-30T06:10:21;7.93;;;1.65;;
68608;SDS011;55581;46.718;7.690;2022-10-30T06:12:51;10.55;;;2.10;;
68608;SDS011;55581;46.718;7.690;2022-10-30T06:15:21;8.25;;;2.03;;
68608;SDS011;55581;46.718;7.690;2022-10-30T06:17:49;10.50;;;2.53;;
68608;SDS011;55581;46.718;7.690;2022-10-30T06:20:15;8.05;;;2.10;;
68608;SDS011;55581;46.718;7.690;2022-10-30T06:22:51;9.07;;;1.83;;
68608;SDS011;55581;46.718;7.690;2022-10-30T06:25:28;10.60;;;1.77;;
68608;SDS011;55581;46.718;7.690;2022-10-30T06:27:54;9.57;;;1.70;;
68608;SDS011;55581;46.718;7.690;2022-10-30T06:30:20;10.67;;;2.27;;
68608;SDS011;55581;46.718;7.690;2022-10-30T06:32:46;8.20;;;2.15;;
68608;SDS011;55581;46.718;7.690;2022-10-30T06:35:12;13.47;;;1.83;;
68608;SDS011;55581;46.718;7.690;2022-10-30T06:37:43;7.32;;;2.20;;
68608;SDS011;55581;46.718;7.690;2022-10-30T06:40:15;10.38;;;2.53;;
68608;SDS011;55581;46.718;7.690;2022-10-30T06:42:44;9.67;;;2.27;;
68608;SDS011;55581;46.718;7.690;2022-10-30T06:45:11;13.25;;;2.45;;
68608;SDS011;55581;46.718;7.690;2022-10-30T06:47:37;8.10;;;1.92;;
68608;SDS011;55581;46.718;7.690;2022-10-30T06:50:07;9.13;;;1.73;;
68608;SDS011;55581;46.718;7.690;2022-10-30T06:52:34;7.40;;;1.98;;
68608;SDS011;55581;46.718;7.690;2022-10-30T06:55:00;12.63;;;2.60;;
68608;SDS011;55581;46.718;7.690;2022-10-30T06:57:25;7.60;;;1.70;;
68608;SDS011;55581;46.718;7.690;2022-10-30T06:59:51;10.40;;;2.00;;
68608;SDS011;55581;46.718;7.690;2022-10-30T07:02:16;6.20;;;1.70;;
68608;SDS011;55581;46.718;7.690;2022-10-30T07:04:42;7.37;;;1.93;;
68608;SDS011;55581;46.718;7.690;2022-10-30T07:07:07;6.30;;;1.57;;
68608;SDS011;55581;46.718;7.690;2022-10-30T07:09:33;7.82;;;1.55;;
68608;SDS011;55581;46.718;7.690;2022-10-30T07:12:04;8.70;;;1.73;;
68608;SDS011;55581;46.718;7.690;2022-10-30T07:14:32;9.73;;;2.17;;
68608;SDS011;55581;46.718;7.690;2022-10-30T07:16:58;11.82;;;2.58;;
68608;SDS011;55581;46.718;7.690;2022-10-30T07:19:23;7.53;;;1.73;;
68608;SDS011;55581;46.718;7.690;2022-10-30T07:21:48;7.43;;;1.50;;
68608;SDS011;55581;46.718;7.690;2022-10-30T07:24:14;9.32;;;1.60;;
68608;SDS011;55581;46.718;7.690;2022-10-30T07:26:40;6.00;;;1.50;;
68608;SDS011;55581;46.718;7.690;2022-10-30T07:29:08;6.95;;;1.45;;
68608;SDS011;55581;46.718;7.690;2022-10-30T07:31:36;10.47;;;1.60;;
68608;SDS011;55581;46.718;7.690;2022-10-30T07:34:01;9.05;;;2.63;;
68608;SDS011;55581;46.718;7.690;2022-10-30T07:36:27;6.65;;;2.10;;
68608;SDS011;55581;46.718;7.690;2022-10-30T07:38:52;5.57;;;1.97;;
68608;SDS011;55581;46.718;7.690;2022-10-30T07:41:20;12.27;;;2.20;;
68608;SDS011;55581;46.718;7.690;2022-10-30T07:43:46;7.70;;;2.30;;
68608;SDS011;55581;46.718;7.690;2022-10-30T07:46:12;7.23;;;1.93;;
68608;SDS011;55581;46.718;7.690;2022-10-30T07:48:38;7.47;;;2.13;;
68608;SDS011;55581;46.718;7.690;2022-10-30T07:51:03;11.10;;;2.60;;
68608;SDS011;55581;46.718;7.690;2022-10-30T07:53:29;9.43;;;2.87;;
68608;SDS011;55581;46.718;7.690;2022-10-30T07:55:55;10.73;;;2.33;;
68608;SDS011;55581;46.718;7.690;2022-10-30T07:58:21;7.90;;;2.00;;
68608;SDS011;55581;46.718;7.690;2022-10-30T08:00:46;10.13;;;2.80;;
68608;SDS011;55581;46.718;7.690;2022-10-30T08:03:12;15.60;;;3.40;;
68608;SDS011;55581;46.718;7.690;2022-10-30T08:05:38;10.90;;;2.67;;
68608;SDS011;55581;46.718;7.690;2022-10-30T08:08:05;7.87;;;2.50;;
68608;SDS011;55581;46.718;7.690;2022-10-30T08:10:31;14.20;;;2.60;;
68608;SDS011;55581;46.718;7.690;2022-10-30T08:12:57;8.65;;;2.65;;
68608;SDS011;55581;46.718;7.690;2022-10-30T08:15:23;5.40;;;2.10;;
68608;SDS011;55581;46.718;7.690;2022-10-30T08:17:49;8.32;;;2.70;;
68608;SDS011;55581;46.718;7.690;2022-10-30T08:20:16;13.13;;;2.73;;
68608;SDS011;55581;46.718;7.690;2022-10-30T08:22:44;10.77;;;2.72;;
68608;SDS011;55581;46.718;7.690;2022-10-30T08:25:09;9.45;;;2.33;;
68608;SDS011;55581;46.718;7.690;2022-10-30T08:27:34;8.10;;;2.53;;
68608;SDS011;55581;46.718;7.690;2022-10-30T08:30:00;14.23;;;2.63;;
68608;SDS011;55581;46.718;7.690;2022-10-30T08:32:25;7.53;;;2.67;;
68608;SDS011;55581;46.718;7.690;2022-10-30T08:34:50;13.03;;;3.33;;
68608;SDS011;55581;46.718;7.690;2022-10-30T08:37:16;10.93;;;2.73;;
68608;SDS011;55581;46.718;7.690;2022-10-30T08:39:41;9.47;;;3.30;;
68608;SDS011;55581;46.718;7.690;2022-10-30T08:42:09;11.45;;;3.20;;
68608;SDS011;55581;46.718;7.690;2022-10-30T08:44:34;8.33;;;2.60;;
68608;SDS011;55581;46.718;7.690;2022-10-30T08:46:59;15.07;;;3.07;;
68608;SDS011;55581;46.718;7.690;2022-10-30T08:49:25;9.57;;;3.10;;
68608;SDS011;55581;46.718;7.690;2022-10-30T08:51:50;7.30;;;2.17;;
68608;SDS011;55581;46.718;7.690;2022-10-30T08:54:16;8.13;;;2.50;;
68608;SDS011;55581;46.718;7.690;2022-10-30T08:56:41;9.70;;;2.87;;
68608;SDS011;55581;46.718;7.690;2022-10-30T08:59:08;11.60;;;2.78;;
68608;SDS011;55581;46.718;7.690;2022-10-30T09:01:33;9.63;;;2.87;;
68608;SDS011;55581;46.718;7.690;2022-10-30T09:04:00;7.60;;;2.78;;
68608;SDS011;55581;46.718;7.690;2022-10-30T09:06:26;11.23;;;2.50;;
68608;SDS011;55581;46.718;7.690;2022-10-30T09:08:51;7.93;;;2.40;;
68608;SDS011;55581;46.718;7.690;2022-10-30T09:11:17;9.63;;;2.80;;
68608;SDS011;55581;46.718;7.690;2022-10-30T09:13:42;7.27;;;2.20;;
68608;SDS011;55581;46.718;7.690;2022-10-30T09:16:08;10.60;;;2.78;;
68608;SDS011;55581;46.718;7.690;2022-10-30T09:18:33;9.33;;;2.60;;
68608;SDS011;55581;46.718;7.690;2022-10-30T09:21:00;7.85;;;2.33;;
68608;SDS011;55581;46.718;7.690;2022-10-30T09:23:25;10.73;;;2.73;;
68608;SDS011;55581;46.718;7.690;2022-10-30T09:25:51;10.07;;;2.90;;
68608;SDS011;55581;46.718;7.690;2022-10-30T09:28:16;9.17;;;2.60;;
68608;SDS011;55581;46.718;7.690;2022-10-30T09:30:41;11.02;;;2.83;;
68608;SDS011;55581;46.718;7.690;2022-10-30T09:33:09;13.20;;;2.70;;
68608;SDS011;55581;46.718;7.690;2022-10-30T09:35:34;9.90;;;2.65;;
68608;SDS011;55581;46.718;7.690;2022-10-30T09:38:01;9.90;;;2.50;;
68608;SDS011;55581;46.718;7.690;2022-10-30T10:00:19;9.00;;;2.97;;
68608;SDS011;55581;46.718;7.690;2022-10-30T10:05:54;10.68;;;3.53;;
68608;SDS011;55581;46.718;7.690;2022-10-30T10:10:58;8.87;;;2.90;;
68608;SDS011;55581;46.718;7.690;2022-10-30T10:16:02;10.38;;;3.60;;
68608;SDS011;55581;46.718;7.690;2022-10-30T10:18:40;9.98;;;3.30;;
68608;SDS011;55581;46.718;7.690;2022-10-30T10:21:16;9.95;;;3.05;;
68608;SDS011;55581;46.718;7.690;2022-10-30T10:23:47;11.07;;;3.03;;
68608;SDS011;55581;46.718;7.690;2022-10-30T10:27:00;10.85;;;2.70;;
68608;SDS011;55581;46.718;7.690;2022-10-30T10:29:36;7.72;;;2.50;;
68608;SDS011;55581;46.718;7.690;2022-10-30T10:51:27;12.43;;;2.70;;
68608;SDS011;55581;46.718;7.690;2022-10-30T10:54:00;12.02;;;2.63;;
68608;SDS011;55581;46.718;7.690;2022-10-30T10:56:30;7.13;;;1.92;;
68608;SDS011;55581;46.718;7.690;2022-10-30T11:04:51;7.90;;;2.87;;
68608;SDS011;55581;46.718;7.690;2022-10-30T11:07:20;8.25;;;2.95;;
68608;SDS011;55581;46.718;7.690;2022-10-30T11:09:47;13.18;;;3.00;;
68608;SDS011;55581;46.718;7.690;2022-10-30T11:12:18;6.30;;;2.65;;
68608;SDS011;55581;46.718;7.690;2022-10-30T11:14:47;15.70;;;3.25;;
68608;SDS011;55581;46.718;7.690;2022-10-30T11:19:38;10.27;;;3.17;;
68608;SDS011;55581;46.718;7.690;2022-10-30T11:22:08;12.82;;;3.58;;
68608;SDS011;55581;46.718;7.690;2022-10-30T11:24:43;10.97;;;3.30;;
68608;SDS011;55581;46.718;7.690;2022-10-30T11:27:25;11.50;;;3.00;;
68608;SDS011;55581;46.718;7.690;2022-10-30T11:32:27;10.70;;;3.42;;
68608;SDS011;55581;46.718;7.690;2022-10-30T11:37:32;9.77;;;2.90;;
68608;SDS011;55581;46.718;7.690;2022-10-30T11:40:04;11.13;;;3.35;;
68608;SDS011;55581;46.718;7.690;2022-10-30T11:42:35;5.77;;;2.30;;
68608;SDS011;55581;46.718;7.690;2022-10-30T11:45:08;9.30;;;3.10;;
68608;SDS011;55581;46.718;7.690;2022-10-30T11:47:39;10.48;;;3.05;;
68608;SDS011;55581;46.718;7.690;2022-10-30T11:50:12;9.35;;;2.45;;
68608;SDS011;55581;46.718;7.690;2022-10-30T11:52:43;6.90;;;2.40;;
68608;SDS011;55581;46.718;7.690;2022-10-30T11:55:19;9.30;;;3.10;;
68608;SDS011;55581;46.718;7.690;2022-10-30T11:57:49;9.45;;;2.67;;
68608;SDS011;55581;46.718;7.690;2022-10-30T12:00:22;9.98;;;2.70;;
68608;SDS011;55581;46.718;7.690;2022-10-30T12:02:55;9.50;;;2.80;;
68608;SDS011;55581;46.718;7.690;2022-10-30T12:10:31;10.25;;;3.00;;
68608;SDS011;55581;46.718;7.690;2022-10-30T12:13:04;11.83;;;4.27;;
68608;SDS011;55581;46.718;7.690;2022-10-30T12:15:39;11.98;;;3.22;;
68608;SDS011;55581;46.718;7.690;2022-10-30T12:18:07;8.95;;;2.70;;
68608;SDS011;55581;46.718;7.690;2022-10-30T12:20:45;9.02;;;3.20;;
68608;SDS011;55581;46.718;7.690;2022-10-30T12:23:18;10.43;;;3.85;;
68608;SDS011;55581;46.718;7.690;2022-10-30T12:25:58;10.37;;;3.33;;
68608;SDS011;55581;46.718;7.690;2022-10-30T12:28:29;10.30;;;2.65;;
68608;SDS011;55581;46.718;7.690;2022-10-30T12:31:04;12.32;;;2.90;;
68608;SDS011;55581;46.718;7.690;2022-10-30T12:33:39;8.18;;;2.88;;
68608;SDS011;55581;46.718;7.690;2022-10-30T12:36:11;10.80;;;2.50;;
68608;SDS011;55581;46.718;7.690;2022-10-30T12:41:30;8.57;;;3.05;;
68608;SDS011;55581;46.718;7.690;2022-10-30T12:47:03;11.45;;;3.25;;
68608;SDS011;55581;46.718;7.690;2022-10-30T12:52:07;10.87;;;3.17;;
68608;SDS011;55581;46.718;7.690;2022-10-30T12:57:36;11.65;;;3.50;;
68608;SDS011;55581;46.718;7.690;2022-10-30T13:05:04;9.37;;;2.53;;
68608;SDS011;55581;46.718;7.690;2022-10-30T13:07:44;8.85;;;2.50;;
68608;SDS011;55581;46.718;7.690;2022-10-30T13:10:19;8.63;;;2.23;;
68608;SDS011;55581;46.718;7.690;2022-10-30T13:12:46;8.07;;;2.88;;
68608;SDS011;55581;46.718;7.690;2022-10-30T13:17:49;7.25;;;2.28;;
68608;SDS011;55581;46.718;7.690;2022-10-30T13:20:15;9.13;;;2.70;;
68608;SDS011;55581;46.718;7.690;2022-10-30T13:28:24;10.13;;;2.03;;
68608;SDS011;55581;46.718;7.690;2022-10-30T13:30:58;9.27;;;2.30;;
68608;SDS011;55581;46.718;7.690;2022-10-30T13:33:33;7.40;;;2.13;;
68608;SDS011;55581;46.718;7.690;2022-10-30T13:36:10;8.27;;;2.35;;
68608;SDS011;55581;46.718;7.690;2022-10-30T13:38:58;11.68;;;3.03;;
68608;SDS011;55581;46.718;7.690;2022-10-30T13:49:49;11.18;;;2.40;;
68608;SDS011;55581;46.718;7.690;2022-10-30T13:52:15;8.30;;;2.40;;
68608;SDS011;55581;46.718;7.690;2022-10-30T13:54:58;10.27;;;2.70;;
68608;SDS011;55581;46.718;7.690;2022-10-30T13:57:33;8.35;;;2.78;;
68608;SDS011;55581;46.718;7.690;2022-10-30T14:00:13;11.20;;;3.00;;
68608;SDS011;55581;46.718;7.690;2022-10-30T14:05:47;7.60;;;2.63;;
68608;SDS011;55581;46.718;7.690;2022-10-30T14:10:59;10.52;;;2.53;;
68608;SDS011;55581;46.718;7.690;2022-10-30T14:13:42;10.32;;;2.38;;
68608;SDS011;55581;46.718;7.690;2022-10-30T14:21:41;11.97;;;2.80;;
68608;SDS011;55581;46.718;7.690;2022-10-30T14:31:58;9.40;;;2.67;;
68608;SDS011;55581;46.718;7.690;2022-10-30T14:39:47;12.05;;;2.60;;
68608;SDS011;55581;46.718;7.690;2022-10-30T14:50:41;13.10;;;2.42;;
68608;SDS011;55581;46.718;7.690;2022-10-30T14:58:44;6.63;;;2.17;;
68608;SDS011;55581;46.718;7.690;2022-10-30T15:07:04;10.23;;;2.97;;
68608;SDS011;55581;46.718;7.690;2022-10-30T15:14:52;11.10;;;2.70;;
68608;SDS011;55581;46.718;7.690;2022-10-30T15:19:54;6.40;;;2.15;;
68608;SDS011;55581;46.718;7.690;2022-10-30T15:22:20;8.10;;;2.35;;
68608;SDS011;55581;46.718;7.690;2022-10-30T15:24:50;9.10;;;2.50;;
68608;SDS011;55581;46.718;7.690;2022-10-30T15:27:16;8.23;;;2.40;;
68608;SDS011;55581;46.718;7.690;2022-10-30T15:29:45;8.73;;;2.08;;
68608;SDS011;55581;46.718;7.690;2022-10-30T15:32:19;9.82;;;2.35;;
68608;SDS011;55581;46.718;7.690;2022-10-30T15:37:26;7.70;;;2.50;;
68608;SDS011;55581;46.718;7.690;2022-10-30T15:40:09;11.05;;;2.53;;
68608;SDS011;55581;46.718;7.690;2022-10-30T15:42:36;9.57;;;2.72;;
68608;SDS011;55581;46.718;7.690;2022-10-30T15:45:02;9.88;;;2.90;;
68608;SDS011;55581;46.718;7.690;2022-10-30T15:47:30;10.68;;;2.83;;
68608;SDS011;55581;46.718;7.690;2022-10-30T15:49:56;11.27;;;2.73;;
68608;SDS011;55581;46.718;7.690;2022-10-30T15:52:23;9.90;;;3.88;;
68608;SDS011;55581;46.718;7.690;2022-10-30T15:55:00;7.03;;;3.00;;
68608;SDS011;55581;46.718;7.690;2022-10-30T15:59:58;8.25;;;2.97;;
68608;SDS011;55581;46.718;7.690;2022-10-30T16:02:31;9.63;;;3.40;;
68608;SDS011;55581;46.718;7.690;2022-10-30T16:04:57;12.95;;;3.20;;
68608;SDS011;55581;46.718;7.690;2022-10-30T16:07:26;9.93;;;3.37;;
68608;SDS011;55581;46.718;7.690;2022-10-30T16:09:57;9.02;;;2.72;;
68608;SDS011;55581;46.718;7.690;2022-10-30T16:12:25;7.83;;;3.17;;
68608;SDS011;55581;46.718;7.690;2022-10-30T16:14:52;10.70;;;2.92;;
68608;SDS011;55581;46.718;7.690;2022-10-30T16:17:19;8.10;;;2.72;;
68608;SDS011;55581;46.718;7.690;2022-10-30T16:19:46;10.63;;;3.38;;
68608;SDS011;55581;46.718;7.690;2022-10-30T16:22:14;14.15;;;5.95;;
68608;SDS011;55581;46.718;7.690;2022-10-30T16:24:53;15.60;;;7.73;;
68608;SDS011;55581;46.718;7.690;2022-10-30T16:27:21;14.15;;;5.97;;
68608;SDS011;55581;46.718;7.690;2022-10-30T16:29:51;20.58;;;8.18;;
68608;SDS011;55581;46.718;7.690;2022-10-30T16:32:20;22.23;;;11.48;;
68608;SDS011;55581;46.718;7.690;2022-10-30T16:34:48;27.55;;;15.23;;
68608;SDS011;55581;46.718;7.690;2022-10-30T16:37:24;26.57;;;13.17;;
68608;SDS011;55581;46.718;7.690;2022-10-30T16:39:56;17.00;;;7.75;;
68608;SDS011;55581;46.718;7.690;2022-10-30T16:42:26;17.15;;;7.25;;
68608;SDS011;55581;46.718;7.690;2022-10-30T16:47:45;15.32;;;5.57;;
68608;SDS011;55581;46.718;7.690;2022-10-30T16:50:15;14.05;;;5.20;;
68608;SDS011;55581;46.718;7.690;2022-10-30T16:52:41;11.45;;;3.83;;
68608;SDS011;55581;46.718;7.690;2022-10-30T16:57:41;11.80;;;4.60;;
68608;SDS011;55581;46.718;7.690;2022-10-30T17:00:23;16.73;;;4.78;;
68608;SDS011;55581;46.718;7.690;2022-10-30T17:02:53;13.10;;;3.10;;
68608;SDS011;55581;46.718;7.690;2022-10-30T17:10:36;9.40;;;2.53;;
68608;SDS011;55581;46.718;7.690;2022-10-30T17:16:31;11.15;;;2.97;;
68608;SDS011;55581;46.718;7.690;2022-10-30T17:19:00;13.63;;;3.35;;
68608;SDS011;55581;46.718;7.690;2022-10-30T17:21:53;9.73;;;2.78;;
68608;SDS011;55581;46.718;7.690;2022-10-30T17:24:21;7.37;;;2.47;;
68608;SDS011;55581;46.718;7.690;2022-10-30T17:26:57;9.05;;;3.10;;
68608;SDS011;55581;46.718;7.690;2022-10-30T17:32:03;10.90;;;2.58;;
68608;SDS011;55581;46.718;7.690;2022-10-30T17:34:35;7.63;;;2.00;;
68608;SDS011;55581;46.718;7.690;2022-10-30T17:37:03;6.35;;;2.25;;
68608;SDS011;55581;46.718;7.690;2022-10-30T17:39:29;7.97;;;1.93;;
68608;SDS011;55581;46.718;7.690;2022-10-30T17:41:54;8.75;;;2.33;;
68608;SDS011;55581;46.718;7.690;2022-10-30T17:44:21;10.33;;;2.60;;
68608;SDS011;55581;46.718;7.690;2022-10-30T17:46:49;6.47;;;2.35;;
68608;SDS011;55581;46.718;7.690;2022-10-30T17:49:22;8.82;;;2.45;;
68608;SDS011;55581;46.718;7.690;2022-10-30T17:51:55;5.80;;;2.25;;
68608;SDS011;55581;46.718;7.690;2022-10-30T17:54:21;9.95;;;2.90;;
68608;SDS011;55581;46.718;7.690;2022-10-30T17:56:49;9.77;;;2.13;;
68608;SDS011;55581;46.718;7.690;2022-10-30T17:59:14;9.23;;;2.33;;
68608;SDS011;55581;46.718;7.690;2022-10-30T18:01:40;10.40;;;2.10;;
68608;SDS011;55581;46.718;7.690;2022-10-30T18:04:13;8.57;;;2.40;;
68608;SDS011;55581;46.718;7.690;2022-10-30T18:06:40;9.70;;;2.15;;
68608;SDS011;55581;46.718;7.690;2022-10-30T18:09:06;8.30;;;2.07;;